sensor_id;sensor_type;location;lat;lon;timestamp;P1;durP1;ratioP1;P2;durP2;ratioP2
54871;SDS011;43914;57.680;11.982;2023-03-12T00:02:20;6.50;;;1.00;;
54871;SDS011;43914;57.680;11.982;2023-03-12T00:04:46;3.40;;;0.70;;
54871;SDS011;43914;57.680;11.982;2023-03-12T00:07:12;4.50;;;1.00;;
54871;SDS011;43914;57.680;11.982;2023-03-12T00:09:37;7.20;;;1.40;;
54871;SDS011;43914;57.680;11.982;2023-03-12T00:12:04;4.70;;;0.90;;
54871;SDS011;43914;57.680;11.982;2023-03-12T00:14:30;7.50;;;1.20;;
54871;SDS011;43914;57.680;11.982;2023-03-12T00:16:56;4.20;;;0.80;;
54871;SDS011;43914;57.680;11.982;2023-03-12T00:19:22;5.60;;;1.00;;
54871;SDS011;43914;57.680;11.982;2023-03-12T00:21:47;5.90;;;1.00;;
54871;SDS011;43914;57.680;11.982;2023-03-12T00:24:13;4.30;;;1.10;;
54871;SDS011;43914;57.680;11.982;2023-03-12T00:26:38;6.00;;;0.90;;
54871;SDS011;43914;57.680;11.982;2023-03-12T00:29:04;7.00;;;1.10;;
54871;SDS011;43914;57.680;11.982;2023-03-12T00:31:30;4.00;;;1.10;;
54871;SDS011;43914;57.680;11.982;2023-03-12T00:33:58;9.70;;;1.10;;
54871;SDS011;43914;57.680;11.982;2023-03-12T00:36:25;4.70;;;0.90;;
54871;SDS011;43914;57.680;11.982;2023-03-12T00:38:53;4.40;;;0.90;;
54871;SDS011;43914;57.680;11.982;2023-03-12T00:41:23;5.20;;;1.00;;
54871;SDS011;43914;57.680;11.982;2023-03-12T00:43:50;4.60;;;0.70;;
54871;SDS011;43914;57.680;11.982;2023-03-12T00:46:16;3.90;;;1.00;;
54871;SDS011;43914;57.680;11.982;2023-03-12T00:48:42;5.00;;;1.00;;
54871;SDS011;43914;57.680;11.982;2023-03-12T00:51:09;7.10;;;1.20;;
54871;SDS011;43914;57.680;11.982;2023-03-12T00:53:35;3.10;;;0.80;;
54871;SDS011;43914;57.680;11.982;2023-03-12T00:56:01;7.10;;;1.10;;
54871;SDS011;43914;57.680;11.982;2023-03-12T00:58:27;3.90;;;0.80;;
54871;SDS011;43914;57.680;11.982;2023-03-12T01:00:53;5.00;;;0.80;;
54871;SDS011;43914;57.680;11.982;2023-03-12T01:03:19;6.30;;;1.10;;
54871;SDS011;43914;57.680;11.982;2023-03-12T01:05:44;3.80;;;0.90;;
54871;SDS011;43914;57.680;11.982;2023-03-12T01:08:10;4.40;;;1.20;;
54871;SDS011;43914;57.680;11.982;2023-03-12T01:10:39;4.50;;;0.90;;
54871;SDS011;43914;57.680;11.982;2023-03-12T01:13:07;4.40;;;1.00;;
54871;SDS011;43914;57.680;11.982;2023-03-12T01:15:33;3.80;;;0.90;;
54871;SDS011;43914;57.680;11.982;2023-03-12T01:17:58;5.00;;;0.90;;
54871;SDS011;43914;57.680;11.982;2023-03-12T01:20:24;7.30;;;0.80;;
54871;SDS011;43914;57.680;11.982;2023-03-12T01:22:50;3.00;;;0.80;;
54871;SDS011;43914;57.680;11.982;2023-03-12T01:25:15;4.20;;;1.00;;
54871;SDS011;43914;57.680;11.982;2023-03-12T01:27:41;4.70;;;1.10;;
54871;SDS011;43914;57.680;11.982;2023-03-12T01:30:07;7.50;;;1.10;;
54871;SDS011;43914;57.680;11.982;2023-03-12T01:32:33;8.80;;;1.10;;
54871;SDS011;43914;57.680;11.982;2023-03-12T01:35:08;3.60;;;0.90;;
54871;SDS011;43914;57.680;11.982;2023-03-12T01:37:34;5.80;;;1.00;;
54871;SDS011;43914;57.680;11.982;2023-03-12T01:39:59;5.90;;;1.10;;
54871;SDS011;43914;57.680;11.982;2023-03-12T01:42:25;4.50;;;0.90;;
54871;SDS011;43914;57.680;11.982;2023-03-12T01:44:52;5.70;;;1.00;;
54871;SDS011;43914;57.680;11.982;2023-03-12T01:47:17;4.80;;;1.10;;
54871;SDS011;43914;57.680;11.982;2023-03-12T01:49:43;4.80;;;0.90;;
54871;SDS011;43914;57.680;11.982;2023-03-12T01:52:14;8.60;;;1.40;;
54871;SDS011;43914;57.680;11.982;2023-03-12T01:54:52;5.90;;;1.00;;
54871;SDS011;43914;57.680;11.982;2023-03-12T01:57:34;3.10;;;0.90;;
54871;SDS011;43914;57.680;11.982;2023-03-12T02:00:11;4.80;;;1.00;;
54871;SDS011;43914;57.680;11.982;2023-03-12T02:02:44;5.10;;;1.10;;
54871;SDS011;43914;57.680;11.982;2023-03-12T02:08:08;7.40;;;1.00;;
54871;SDS011;43914;57.680;11.982;2023-03-12T02:10:35;6.50;;;0.90;;
54871;SDS011;43914;57.680;11.982;2023-03-12T02:13:00;4.40;;;1.10;;
54871;SDS011;43914;57.680;11.982;2023-03-12T02:15:26;5.00;;;1.00;;
54871;SDS011;43914;57.680;11.982;2023-03-12T02:17:52;4.30;;;0.90;;
54871;SDS011;43914;57.680;11.982;2023-03-12T02:20:22;6.60;;;1.20;;
54871;SDS011;43914;57.680;11.982;2023-03-12T02:23:16;4.70;;;1.10;;
54871;SDS011;43914;57.680;11.982;2023-03-12T02:25:50;4.80;;;1.00;;
54871;SDS011;43914;57.680;11.982;2023-03-12T02:28:17;4.00;;;0.70;;
54871;SDS011;43914;57.680;11.982;2023-03-12T02:30:48;4.80;;;1.00;;
54871;SDS011;43914;57.680;11.982;2023-03-12T02:33:15;9.30;;;1.30;;
54871;SDS011;43914;57.680;11.982;2023-03-12T02:35:44;4.70;;;1.00;;
54871;SDS011;43914;57.680;11.982;2023-03-12T02:38:32;6.00;;;1.00;;
54871;SDS011;43914;57.680;11.982;2023-03-12T02:41:09;10.90;;;1.10;;
54871;SDS011;43914;57.680;11.982;2023-03-12T02:43:36;3.40;;;0.90;;
54871;SDS011;43914;57.680;11.982;2023-03-12T02:46:03;4.50;;;0.90;;
54871;SDS011;43914;57.680;11.982;2023-03-12T02:48:30;3.80;;;1.00;;
54871;SDS011;43914;57.680;11.982;2023-03-12T02:50:58;6.60;;;0.90;;
54871;SDS011;43914;57.680;11.982;2023-03-12T02:53:24;6.30;;;1.10;;
54871;SDS011;43914;57.680;11.982;2023-03-12T02:55:49;4.40;;;0.80;;
54871;SDS011;43914;57.680;11.982;2023-03-12T02:58:15;4.60;;;0.90;;
54871;SDS011;43914;57.680;11.982;2023-03-12T03:00:40;4.80;;;0.90;;
54871;SDS011;43914;57.680;11.982;2023-03-12T03:03:06;5.80;;;1.20;;
54871;SDS011;43914;57.680;11.982;2023-03-12T03:05:32;6.60;;;1.00;;
54871;SDS011;43914;57.680;11.982;2023-03-12T03:07:57;4.40;;;0.80;;
54871;SDS011;43914;57.680;11.982;2023-03-12T03:10:23;7.30;;;1.10;;
54871;SDS011;43914;57.680;11.982;2023-03-12T03:12:48;2.80;;;0.90;;
54871;SDS011;43914;57.680;11.982;2023-03-12T03:15:15;11.30;;;1.30;;
54871;SDS011;43914;57.680;11.982;2023-03-12T03:17:41;6.40;;;1.10;;
54871;SDS011;43914;57.680;11.982;2023-03-12T03:20:06;5.60;;;0.80;;
54871;SDS011;43914;57.680;11.982;2023-03-12T03:22:35;3.00;;;0.80;;
54871;SDS011;43914;57.680;11.982;2023-03-12T03:25:01;5.90;;;0.90;;
54871;SDS011;43914;57.680;11.982;2023-03-12T03:27:27;5.00;;;1.00;;
54871;SDS011;43914;57.680;11.982;2023-03-12T03:29:53;3.30;;;0.90;;
54871;SDS011;43914;57.680;11.982;2023-03-12T03:32:19;3.70;;;1.00;;
54871;SDS011;43914;57.680;11.982;2023-03-12T03:34:44;3.30;;;0.90;;
54871;SDS011;43914;57.680;11.982;2023-03-12T03:37:10;3.20;;;0.90;;
54871;SDS011;43914;57.680;11.982;2023-03-12T03:39:36;3.90;;;0.80;;
54871;SDS011;43914;57.680;11.982;2023-03-12T03:42:01;4.40;;;0.80;;
54871;SDS011;43914;57.680;11.982;2023-03-12T03:44:27;8.10;;;1.00;;
54871;SDS011;43914;57.680;11.982;2023-03-12T03:46:52;4.40;;;0.90;;
54871;SDS011;43914;57.680;11.982;2023-03-12T03:49:19;4.90;;;0.90;;
54871;SDS011;43914;57.680;11.982;2023-03-12T03:51:45;7.90;;;1.90;;
54871;SDS011;43914;57.680;11.982;2023-03-12T03:54:11;4.50;;;0.90;;
54871;SDS011;43914;57.680;11.982;2023-03-12T03:56:36;4.20;;;0.70;;
54871;SDS011;43914;57.680;11.982;2023-03-12T03:59:04;6.80;;;1.00;;
54871;SDS011;43914;57.680;11.982;2023-03-12T04:01:29;5.70;;;0.90;;
54871;SDS011;43914;57.680;11.982;2023-03-12T04:03:56;4.20;;;0.90;;
54871;SDS011;43914;57.680;11.982;2023-03-12T04:06:22;4.40;;;1.10;;
54871;SDS011;43914;57.680;11.982;2023-03-12T04:08:47;4.80;;;0.80;;
54871;SDS011;43914;57.680;11.982;2023-03-12T04:11:17;2.80;;;0.80;;
54871;SDS011;43914;57.680;11.982;2023-03-12T04:13:44;5.00;;;1.00;;
54871;SDS011;43914;57.680;11.982;2023-03-12T04:16:13;3.40;;;1.00;;
54871;SDS011;43914;57.680;11.982;2023-03-12T04:18:40;4.70;;;1.00;;
54871;SDS011;43914;57.680;11.982;2023-03-12T04:21:07;6.30;;;0.80;;
54871;SDS011;43914;57.680;11.982;2023-03-12T04:23:34;8.60;;;1.10;;
54871;SDS011;43914;57.680;11.982;2023-03-12T04:26:00;5.60;;;0.80;;
54871;SDS011;43914;57.680;11.982;2023-03-12T04:28:26;6.40;;;1.40;;
54871;SDS011;43914;57.680;11.982;2023-03-12T04:30:58;6.70;;;0.90;;
54871;SDS011;43914;57.680;11.982;2023-03-12T04:33:26;5.30;;;1.00;;
54871;SDS011;43914;57.680;11.982;2023-03-12T04:35:52;5.80;;;1.00;;
54871;SDS011;43914;57.680;11.982;2023-03-12T04:38:21;4.10;;;0.90;;
54871;SDS011;43914;57.680;11.982;2023-03-12T04:40:58;3.20;;;0.80;;
54871;SDS011;43914;57.680;11.982;2023-03-12T04:43:44;5.60;;;1.20;;
54871;SDS011;43914;57.680;11.982;2023-03-12T04:46:09;3.20;;;0.90;;
54871;SDS011;43914;57.680;11.982;2023-03-12T04:48:35;4.70;;;1.00;;
54871;SDS011;43914;57.680;11.982;2023-03-12T04:51:01;6.50;;;1.10;;
54871;SDS011;43914;57.680;11.982;2023-03-12T04:53:28;6.90;;;1.30;;
54871;SDS011;43914;57.680;11.982;2023-03-12T04:55:53;7.00;;;1.20;;
54871;SDS011;43914;57.680;11.982;2023-03-12T04:58:20;3.80;;;0.90;;
54871;SDS011;43914;57.680;11.982;2023-03-12T05:00:46;3.30;;;1.00;;
54871;SDS011;43914;57.680;11.982;2023-03-12T05:03:14;5.20;;;1.00;;
54871;SDS011;43914;57.680;11.982;2023-03-12T05:05:40;3.60;;;0.80;;
54871;SDS011;43914;57.680;11.982;2023-03-12T05:08:06;5.90;;;1.00;;
54871;SDS011;43914;57.680;11.982;2023-03-12T05:10:34;6.20;;;0.90;;
54871;SDS011;43914;57.680;11.982;2023-03-12T05:13:03;4.30;;;0.90;;
54871;SDS011;43914;57.680;11.982;2023-03-12T05:15:28;7.50;;;1.10;;
54871;SDS011;43914;57.680;11.982;2023-03-12T05:17:54;8.50;;;1.20;;
54871;SDS011;43914;57.680;11.982;2023-03-12T05:20:19;4.40;;;1.00;;
54871;SDS011;43914;57.680;11.982;2023-03-12T05:22:45;5.20;;;0.90;;
54871;SDS011;43914;57.680;11.982;2023-03-12T05:25:10;5.20;;;1.00;;
54871;SDS011;43914;57.680;11.982;2023-03-12T05:27:36;8.40;;;1.20;;
54871;SDS011;43914;57.680;11.982;2023-03-12T05:30:03;6.20;;;1.00;;
54871;SDS011;43914;57.680;11.982;2023-03-12T05:32:29;8.60;;;1.00;;
54871;SDS011;43914;57.680;11.982;2023-03-12T05:34:54;3.60;;;0.90;;
54871;SDS011;43914;57.680;11.982;2023-03-12T05:37:20;6.60;;;1.00;;
54871;SDS011;43914;57.680;11.982;2023-03-12T05:39:45;3.00;;;0.90;;
54871;SDS011;43914;57.680;11.982;2023-03-12T05:42:11;7.20;;;1.10;;
54871;SDS011;43914;57.680;11.982;2023-03-12T05:44:38;7.20;;;1.10;;
54871;SDS011;43914;57.680;11.982;2023-03-12T05:47:04;6.90;;;1.00;;
54871;SDS011;43914;57.680;11.982;2023-03-12T05:49:34;3.70;;;0.80;;
54871;SDS011;43914;57.680;11.982;2023-03-12T05:52:00;4.60;;;1.00;;
54871;SDS011;43914;57.680;11.982;2023-03-12T05:54:26;4.00;;;0.80;;
54871;SDS011;43914;57.680;11.982;2023-03-12T05:56:51;4.30;;;0.80;;
54871;SDS011;43914;57.680;11.982;2023-03-12T05:59:17;3.50;;;0.80;;
54871;SDS011;43914;57.680;11.982;2023-03-12T06:01:42;6.50;;;0.90;;
54871;SDS011;43914;57.680;11.982;2023-03-12T06:04:09;4.50;;;0.80;;
54871;SDS011;43914;57.680;11.982;2023-03-12T06:06:37;4.70;;;0.90;;
54871;SDS011;43914;57.680;11.982;2023-03-12T06:09:04;5.10;;;0.90;;
54871;SDS011;43914;57.680;11.982;2023-03-12T06:11:30;5.60;;;1.20;;
54871;SDS011;43914;57.680;11.982;2023-03-12T06:13:57;7.50;;;1.10;;
54871;SDS011;43914;57.680;11.982;2023-03-12T06:16:23;7.30;;;0.90;;
54871;SDS011;43914;57.680;11.982;2023-03-12T06:18:57;5.50;;;1.00;;
54871;SDS011;43914;57.680;11.982;2023-03-12T06:21:26;4.90;;;0.80;;
54871;SDS011;43914;57.680;11.982;2023-03-12T06:23:53;3.90;;;0.90;;
54871;SDS011;43914;57.680;11.982;2023-03-12T06:26:20;3.80;;;0.90;;
54871;SDS011;43914;57.680;11.982;2023-03-12T06:28:47;4.50;;;0.90;;
54871;SDS011;43914;57.680;11.982;2023-03-12T06:31:14;4.00;;;1.00;;
54871;SDS011;43914;57.680;11.982;2023-03-12T06:33:40;5.60;;;1.30;;
54871;SDS011;43914;57.680;11.982;2023-03-12T06:36:06;4.40;;;0.90;;
54871;SDS011;43914;57.680;11.982;2023-03-12T06:38:34;6.50;;;1.00;;
54871;SDS011;43914;57.680;11.982;2023-03-12T06:41:04;6.00;;;0.90;;
54871;SDS011;43914;57.680;11.982;2023-03-12T06:43:32;3.60;;;0.90;;
54871;SDS011;43914;57.680;11.982;2023-03-12T06:45:59;4.90;;;0.90;;
54871;SDS011;43914;57.680;11.982;2023-03-12T06:48:26;5.70;;;1.00;;
54871;SDS011;43914;57.680;11.982;2023-03-12T06:50:53;4.00;;;0.80;;
54871;SDS011;43914;57.680;11.982;2023-03-12T06:53:20;3.60;;;0.80;;
54871;SDS011;43914;57.680;11.982;2023-03-12T06:55:49;8.70;;;1.30;;
54871;SDS011;43914;57.680;11.982;2023-03-12T06:58:16;4.80;;;1.10;;
54871;SDS011;43914;57.680;11.982;2023-03-12T07:00:42;5.30;;;1.20;;
54871;SDS011;43914;57.680;11.982;2023-03-12T07:03:08;5.50;;;1.20;;
54871;SDS011;43914;57.680;11.982;2023-03-12T07:05:34;7.40;;;1.10;;
54871;SDS011;43914;57.680;11.982;2023-03-12T07:08:00;6.10;;;1.10;;
54871;SDS011;43914;57.680;11.982;2023-03-12T07:10:26;4.30;;;0.90;;
54871;SDS011;43914;57.680;11.982;2023-03-12T07:12:57;3.60;;;0.90;;
54871;SDS011;43914;57.680;11.982;2023-03-12T07:15:25;3.10;;;0.80;;
54871;SDS011;43914;57.680;11.982;2023-03-12T07:17:51;4.80;;;0.90;;
54871;SDS011;43914;57.680;11.982;2023-03-12T07:20:16;5.00;;;1.00;;
54871;SDS011;43914;57.680;11.982;2023-03-12T07:22:45;6.30;;;1.00;;
54871;SDS011;43914;57.680;11.982;2023-03-12T07:25:10;4.40;;;1.10;;
54871;SDS011;43914;57.680;11.982;2023-03-12T07:27:36;6.00;;;1.00;;
54871;SDS011;43914;57.680;11.982;2023-03-12T07:30:02;7.60;;;1.00;;
54871;SDS011;43914;57.680;11.982;2023-03-12T07:32:28;3.70;;;0.90;;
54871;SDS011;43914;57.680;11.982;2023-03-12T07:34:54;3.70;;;1.00;;
54871;SDS011;43914;57.680;11.982;2023-03-12T07:37:20;6.10;;;0.90;;
54871;SDS011;43914;57.680;11.982;2023-03-12T07:39:45;4.40;;;0.80;;
54871;SDS011;43914;57.680;11.982;2023-03-12T07:42:15;4.10;;;0.70;;
54871;SDS011;43914;57.680;11.982;2023-03-12T07:44:40;4.70;;;0.70;;
54871;SDS011;43914;57.680;11.982;2023-03-12T07:47:06;4.60;;;0.90;;
54871;SDS011;43914;57.680;11.982;2023-03-12T07:49:31;3.60;;;0.90;;
54871;SDS011;43914;57.680;11.982;2023-03-12T07:51:57;4.00;;;0.80;;
54871;SDS011;43914;57.680;11.982;2023-03-12T07:54:24;3.20;;;0.80;;
54871;SDS011;43914;57.680;11.982;2023-03-12T07:56:54;4.10;;;0.80;;
54871;SDS011;43914;57.680;11.982;2023-03-12T07:59:25;4.00;;;0.80;;
54871;SDS011;43914;57.680;11.982;2023-03-12T08:01:52;8.80;;;0.90;;
54871;SDS011;43914;57.680;11.982;2023-03-12T08:04:18;5.00;;;0.80;;
54871;SDS011;43914;57.680;11.982;2023-03-12T08:06:44;3.70;;;1.00;;
54871;SDS011;43914;57.680;11.982;2023-03-12T08:09:09;5.40;;;0.90;;
54871;SDS011;43914;57.680;11.982;2023-03-12T08:11:38;6.30;;;1.10;;
54871;SDS011;43914;57.680;11.982;2023-03-12T08:14:03;5.50;;;0.90;;
54871;SDS011;43914;57.680;11.982;2023-03-12T08:16:29;4.30;;;0.90;;
54871;SDS011;43914;57.680;11.982;2023-03-12T08:19:01;4.60;;;0.80;;
54871;SDS011;43914;57.680;11.982;2023-03-12T08:21:26;5.40;;;1.10;;
54871;SDS011;43914;57.680;11.982;2023-03-12T08:23:55;5.00;;;0.70;;
54871;SDS011;43914;57.680;11.982;2023-03-12T08:26:23;2.70;;;0.80;;
54871;SDS011;43914;57.680;11.982;2023-03-12T08:28:49;3.20;;;0.60;;
54871;SDS011;43914;57.680;11.982;2023-03-12T08:31:15;3.50;;;0.80;;
54871;SDS011;43914;57.680;11.982;2023-03-12T08:33:40;4.10;;;0.80;;
54871;SDS011;43914;57.680;11.982;2023-03-12T08:36:08;4.30;;;0.90;;
54871;SDS011;43914;57.680;11.982;2023-03-12T08:38:34;2.90;;;0.70;;
54871;SDS011;43914;57.680;11.982;2023-03-12T08:41:00;2.50;;;0.90;;
54871;SDS011;43914;57.680;11.982;2023-03-12T08:43:27;2.30;;;0.70;;
54871;SDS011;43914;57.680;11.982;2023-03-12T08:45:59;1.90;;;0.60;;
54871;SDS011;43914;57.680;11.982;2023-03-12T08:48:26;3.30;;;0.70;;
54871;SDS011;43914;57.680;11.982;2023-03-12T08:51:04;3.00;;;0.70;;
54871;SDS011;43914;57.680;11.982;2023-03-12T08:53:32;2.80;;;0.80;;
54871;SDS011;43914;57.680;11.982;2023-03-12T08:56:00;6.00;;;1.00;;
54871;SDS011;43914;57.680;11.982;2023-03-12T08:58:26;6.30;;;1.10;;
54871;SDS011;43914;57.680;11.982;2023-03-12T09:00:53;3.90;;;0.80;;
54871;SDS011;43914;57.680;11.982;2023-03-12T09:03:23;3.20;;;0.80;;
54871;SDS011;43914;57.680;11.982;2023-03-12T09:06:03;4.10;;;0.80;;
54871;SDS011;43914;57.680;11.982;2023-03-12T09:08:31;5.30;;;1.10;;
54871;SDS011;43914;57.680;11.982;2023-03-12T09:10:58;3.60;;;0.70;;
54871;SDS011;43914;57.680;11.982;2023-03-12T09:13:25;6.70;;;1.00;;
54871;SDS011;43914;57.680;11.982;2023-03-12T09:15:56;3.80;;;0.90;;
54871;SDS011;43914;57.680;11.982;2023-03-12T09:18:23;4.50;;;0.80;;
54871;SDS011;43914;57.680;11.982;2023-03-12T09:20:50;3.40;;;0.70;;
54871;SDS011;43914;57.680;11.982;2023-03-12T09:23:16;4.10;;;0.70;;
54871;SDS011;43914;57.680;11.982;2023-03-12T09:25:45;3.20;;;0.70;;
54871;SDS011;43914;57.680;11.982;2023-03-12T09:28:11;6.30;;;0.90;;
54871;SDS011;43914;57.680;11.982;2023-03-12T09:30:37;3.00;;;0.80;;
54871;SDS011;43914;57.680;11.982;2023-03-12T09:33:03;3.70;;;0.80;;
54871;SDS011;43914;57.680;11.982;2023-03-12T09:35:36;4.50;;;1.00;;
54871;SDS011;43914;57.680;11.982;2023-03-12T09:38:02;4.60;;;0.70;;
54871;SDS011;43914;57.680;11.982;2023-03-12T09:40:29;3.40;;;0.90;;
54871;SDS011;43914;57.680;11.982;2023-03-12T09:43:17;9.30;;;1.10;;
54871;SDS011;43914;57.680;11.982;2023-03-12T09:53:10;5.70;;;0.90;;
54871;SDS011;43914;57.680;11.982;2023-03-12T09:55:40;3.70;;;0.60;;
54871;SDS011;43914;57.680;11.982;2023-03-12T09:58:11;5.00;;;0.90;;
54871;SDS011;43914;57.680;11.982;2023-03-12T10:03:46;3.30;;;1.00;;
54871;SDS011;43914;57.680;11.982;2023-03-12T10:06:17;1.80;;;0.60;;
54871;SDS011;43914;57.680;11.982;2023-03-12T10:17:44;3.50;;;0.70;;
54871;SDS011;43914;57.680;11.982;2023-03-12T10:23:21;4.00;;;0.70;;
54871;SDS011;43914;57.680;11.982;2023-03-12T10:28:41;1.50;;;0.50;;
54871;SDS011;43914;57.680;11.982;2023-03-12T10:34:16;5.70;;;0.80;;
54871;SDS011;43914;57.680;11.982;2023-03-12T10:36:47;6.20;;;1.10;;
54871;SDS011;43914;57.680;11.982;2023-03-12T10:39:19;4.30;;;0.90;;
54871;SDS011;43914;57.680;11.982;2023-03-12T10:41:45;3.30;;;0.60;;
54871;SDS011;43914;57.680;11.982;2023-03-12T10:47:20;3.20;;;0.80;;
54871;SDS011;43914;57.680;11.982;2023-03-12T10:50:15;3.20;;;0.70;;
54871;SDS011;43914;57.680;11.982;2023-03-12T10:55:36;4.00;;;0.80;;
54871;SDS011;43914;57.680;11.982;2023-03-12T10:58:02;3.10;;;0.70;;
54871;SDS011;43914;57.680;11.982;2023-03-12T11:00:29;4.30;;;0.80;;
54871;SDS011;43914;57.680;11.982;2023-03-12T11:02:59;2.90;;;0.70;;
54871;SDS011;43914;57.680;11.982;2023-03-12T11:05:47;4.90;;;1.00;;
54871;SDS011;43914;57.680;11.982;2023-03-12T11:09:00;4.20;;;0.70;;
54871;SDS011;43914;57.680;11.982;2023-03-12T11:11:35;2.50;;;0.80;;
54871;SDS011;43914;57.680;11.982;2023-03-12T11:16:37;2.60;;;0.80;;
54871;SDS011;43914;57.680;11.982;2023-03-12T11:19:06;4.60;;;0.80;;
54871;SDS011;43914;57.680;11.982;2023-03-12T11:21:36;5.00;;;0.70;;
54871;SDS011;43914;57.680;11.982;2023-03-12T11:24:12;5.40;;;0.90;;
54871;SDS011;43914;57.680;11.982;2023-03-12T11:26:43;3.60;;;0.70;;
54871;SDS011;43914;57.680;11.982;2023-03-12T11:29:16;5.20;;;1.10;;
54871;SDS011;43914;57.680;11.982;2023-03-12T11:31:58;2.20;;;0.70;;
54871;SDS011;43914;57.680;11.982;2023-03-12T11:34:39;5.60;;;0.80;;
54871;SDS011;43914;57.680;11.982;2023-03-12T11:56:57;1.50;;;0.60;;
54871;SDS011;43914;57.680;11.982;2023-03-12T12:08:38;5.10;;;0.90;;
54871;SDS011;43914;57.680;11.982;2023-03-12T12:36:36;4.20;;;0.90;;
54871;SDS011;43914;57.680;11.982;2023-03-12T12:42:10;1.80;;;0.60;;
54871;SDS011;43914;57.680;11.982;2023-03-12T12:44:52;3.10;;;0.80;;
54871;SDS011;43914;57.680;11.982;2023-03-12T12:47:47;5.50;;;0.90;;
54871;SDS011;43914;57.680;11.982;2023-03-12T12:50:26;6.60;;;0.80;;
54871;SDS011;43914;57.680;11.982;2023-03-12T13:02:16;4.20;;;0.60;;
54871;SDS011;43914;57.680;11.982;2023-03-12T13:04:45;2.00;;;0.60;;
54871;SDS011;43914;57.680;11.982;2023-03-12T13:09:40;3.40;;;0.80;;
54871;SDS011;43914;57.680;11.982;2023-03-12T13:12:14;4.80;;;0.90;;
54871;SDS011;43914;57.680;11.982;2023-03-12T13:14:47;4.70;;;1.00;;
54871;SDS011;43914;57.680;11.982;2023-03-12T13:17:32;2.40;;;0.80;;
54871;SDS011;43914;57.680;11.982;2023-03-12T13:25:59;2.60;;;0.70;;
54871;SDS011;43914;57.680;11.982;2023-03-12T13:28:59;3.30;;;0.70;;
54871;SDS011;43914;57.680;11.982;2023-03-12T13:31:43;5.70;;;0.80;;
54871;SDS011;43914;57.680;11.982;2023-03-12T13:36:36;3.20;;;0.80;;
54871;SDS011;43914;57.680;11.982;2023-03-12T13:55:29;6.70;;;1.00;;
54871;SDS011;43914;57.680;11.982;2023-03-12T14:01:04;4.50;;;1.20;;
54871;SDS011;43914;57.680;11.982;2023-03-12T14:03:39;6.50;;;0.90;;
54871;SDS011;43914;57.680;11.982;2023-03-12T14:06:12;2.90;;;0.80;;
54871;SDS011;43914;57.680;11.982;2023-03-12T14:14:11;7.10;;;1.00;;
54871;SDS011;43914;57.680;11.982;2023-03-12T14:22:51;4.00;;;1.00;;
54871;SDS011;43914;57.680;11.982;2023-03-12T14:33:22;7.70;;;0.90;;
54871;SDS011;43914;57.680;11.982;2023-03-12T14:35:50;5.70;;;1.00;;
54871;SDS011;43914;57.680;11.982;2023-03-12T14:38:55;3.90;;;0.90;;
54871;SDS011;43914;57.680;11.982;2023-03-12T14:41:20;4.50;;;0.90;;
54871;SDS011;43914;57.680;11.982;2023-03-12T14:43:52;4.20;;;1.00;;
54871;SDS011;43914;57.680;11.982;2023-03-12T14:46:19;6.50;;;0.80;;
54871;SDS011;43914;57.680;11.982;2023-03-12T14:48:47;2.50;;;0.70;;
54871;SDS011;43914;57.680;11.982;2023-03-12T14:51:20;4.00;;;0.90;;
54871;SDS011;43914;57.680;11.982;2023-03-12T14:53:50;7.00;;;0.90;;
54871;SDS011;43914;57.680;11.982;2023-03-12T14:56:32;8.40;;;0.90;;
54871;SDS011;43914;57.680;11.982;2023-03-12T14:59:03;5.70;;;1.00;;
54871;SDS011;43914;57.680;11.982;2023-03-12T15:01:45;4.00;;;0.70;;
54871;SDS011;43914;57.680;11.982;2023-03-12T15:04:13;5.80;;;0.90;;
54871;SDS011;43914;57.680;11.982;2023-03-12T15:06:44;4.30;;;0.90;;
54871;SDS011;43914;57.680;11.982;2023-03-12T15:09:19;3.10;;;0.90;;
54871;SDS011;43914;57.680;11.982;2023-03-12T15:12:00;6.40;;;1.60;;
54871;SDS011;43914;57.680;11.982;2023-03-12T15:14:29;6.10;;;1.10;;
54871;SDS011;43914;57.680;11.982;2023-03-12T15:16:59;5.90;;;1.50;;
54871;SDS011;43914;57.680;11.982;2023-03-12T15:19:29;6.60;;;1.20;;
54871;SDS011;43914;57.680;11.982;2023-03-12T15:21:57;6.10;;;1.10;;
54871;SDS011;43914;57.680;11.982;2023-03-12T15:24:23;8.10;;;1.50;;
54871;SDS011;43914;57.680;11.982;2023-03-12T15:26:50;7.90;;;1.40;;
54871;SDS011;43914;57.680;11.982;2023-03-12T15:29:25;4.50;;;1.00;;
54871;SDS011;43914;57.680;11.982;2023-03-12T15:32:01;4.60;;;1.00;;
54871;SDS011;43914;57.680;11.982;2023-03-12T15:34:38;6.80;;;1.20;;
54871;SDS011;43914;57.680;11.982;2023-03-12T15:40:15;5.90;;;1.10;;
54871;SDS011;43914;57.680;11.982;2023-03-12T15:42:46;9.60;;;1.40;;
54871;SDS011;43914;57.680;11.982;2023-03-12T15:45:33;5.20;;;1.00;;
54871;SDS011;43914;57.680;11.982;2023-03-12T15:48:02;5.10;;;1.00;;
54871;SDS011;43914;57.680;11.982;2023-03-12T15:50:39;5.50;;;1.00;;
54871;SDS011;43914;57.680;11.982;2023-03-12T15:58:39;6.90;;;1.40;;
54871;SDS011;43914;57.680;11.982;2023-03-12T16:01:24;9.40;;;1.70;;
54871;SDS011;43914;57.680;11.982;2023-03-12T16:03:52;8.10;;;1.30;;
54871;SDS011;43914;57.680;11.982;2023-03-12T16:06:19;6.30;;;1.20;;
54871;SDS011;43914;57.680;11.982;2023-03-12T16:08:48;5.10;;;1.00;;
54871;SDS011;43914;57.680;11.982;2023-03-12T16:11:21;5.30;;;1.10;;
54871;SDS011;43914;57.680;11.982;2023-03-12T16:13:51;5.30;;;1.00;;
54871;SDS011;43914;57.680;11.982;2023-03-12T16:16:23;3.30;;;0.80;;
54871;SDS011;43914;57.680;11.982;2023-03-12T16:18:52;4.60;;;1.10;;
54871;SDS011;43914;57.680;11.982;2023-03-12T16:21:17;7.30;;;1.00;;
54871;SDS011;43914;57.680;11.982;2023-03-12T16:23:45;5.10;;;1.00;;
54871;SDS011;43914;57.680;11.982;2023-03-12T16:26:11;7.20;;;1.00;;
54871;SDS011;43914;57.680;11.982;2023-03-12T16:28:38;4.80;;;1.10;;
54871;SDS011;43914;57.680;11.982;2023-03-12T16:31:09;4.80;;;1.20;;
54871;SDS011;43914;57.680;11.982;2023-03-12T16:33:36;7.10;;;1.40;;
54871;SDS011;43914;57.680;11.982;2023-03-12T16:36:02;6.40;;;1.40;;
54871;SDS011;43914;57.680;11.982;2023-03-12T16:38:27;10.20;;;2.10;;
54871;SDS011;43914;57.680;11.982;2023-03-12T16:40:53;7.90;;;1.90;;
54871;SDS011;43914;57.680;11.982;2023-03-12T16:43:20;7.90;;;1.80;;
54871;SDS011;43914;57.680;11.982;2023-03-12T16:45:51;7.10;;;1.60;;
54871;SDS011;43914;57.680;11.982;2023-03-12T16:48:19;9.20;;;3.20;;
54871;SDS011;43914;57.680;11.982;2023-03-12T16:50:52;9.40;;;3.10;;
54871;SDS011;43914;57.680;11.982;2023-03-12T16:53:20;6.90;;;2.00;;
54871;SDS011;43914;57.680;11.982;2023-03-12T16:55:51;5.50;;;1.30;;
54871;SDS011;43914;57.680;11.982;2023-03-12T16:58:27;4.90;;;1.00;;
54871;SDS011;43914;57.680;11.982;2023-03-12T17:00:56;7.00;;;1.30;;
54871;SDS011;43914;57.680;11.982;2023-03-12T17:03:32;7.50;;;1.30;;
54871;SDS011;43914;57.680;11.982;2023-03-12T17:05:59;5.70;;;1.10;;
54871;SDS011;43914;57.680;11.982;2023-03-12T17:08:26;5.50;;;1.30;;
54871;SDS011;43914;57.680;11.982;2023-03-12T17:10:52;5.50;;;1.00;;
54871;SDS011;43914;57.680;11.982;2023-03-12T17:13:24;8.40;;;1.30;;
54871;SDS011;43914;57.680;11.982;2023-03-12T17:15:53;7.60;;;1.50;;
54871;SDS011;43914;57.680;11.982;2023-03-12T17:18:20;5.30;;;1.40;;
54871;SDS011;43914;57.680;11.982;2023-03-12T17:20:46;6.80;;;1.20;;
54871;SDS011;43914;57.680;11.982;2023-03-12T17:23:13;4.00;;;1.10;;
54871;SDS011;43914;57.680;11.982;2023-03-12T17:25:39;7.10;;;1.40;;
54871;SDS011;43914;57.680;11.982;2023-03-12T17:28:12;8.70;;;1.50;;
54871;SDS011;43914;57.680;11.982;2023-03-12T17:30:39;7.60;;;1.50;;